sensor_id;sensor_type;location;lat;lon;timestamp;P1;durP1;ratioP1;P2;durP2;ratioP2
61015;SDS011;46902;52.920;6.536;2023-06-26T00:00:18;7.40;;;6.70;;
61015;SDS011;46902;52.920;6.536;2023-06-26T00:02:44;12.77;;;7.10;;
61015;SDS011;46902;52.920;6.536;2023-06-26T00:05:09;8.32;;;6.70;;
61015;SDS011;46902;52.920;6.536;2023-06-26T00:07:35;8.93;;;6.75;;
61015;SDS011;46902;52.920;6.536;2023-06-26T00:10:04;8.15;;;6.88;;
61015;SDS011;46902;52.920;6.536;2023-06-26T00:12:31;8.15;;;6.65;;
61015;SDS011;46902;52.920;6.536;2023-06-26T00:14:57;8.02;;;7.22;;
61015;SDS011;46902;52.920;6.536;2023-06-26T00:17:23;8.77;;;6.68;;
61015;SDS011;46902;52.920;6.536;2023-06-26T00:19:49;9.70;;;7.18;;
61015;SDS011;46902;52.920;6.536;2023-06-26T00:22:15;9.23;;;6.85;;
61015;SDS011;46902;52.920;6.536;2023-06-26T00:24:41;8.45;;;7.47;;
61015;SDS011;46902;52.920;6.536;2023-06-26T00:27:06;10.57;;;7.38;;
61015;SDS011;46902;52.920;6.536;2023-06-26T00:29:32;7.63;;;6.82;;
61015;SDS011;46902;52.920;6.536;2023-06-26T00:31:57;7.85;;;6.75;;
61015;SDS011;46902;52.920;6.536;2023-06-26T00:34:23;8.68;;;7.78;;
61015;SDS011;46902;52.920;6.536;2023-06-26T00:36:49;8.32;;;7.45;;
61015;SDS011;46902;52.920;6.536;2023-06-26T00:39:14;9.30;;;7.60;;
61015;SDS011;46902;52.920;6.536;2023-06-26T00:41:40;8.30;;;7.32;;
61015;SDS011;46902;52.920;6.536;2023-06-26T00:44:06;9.10;;;7.70;;
61015;SDS011;46902;52.920;6.536;2023-06-26T00:46:32;9.73;;;7.50;;
61015;SDS011;46902;52.920;6.536;2023-06-26T00:48:59;8.50;;;7.35;;
61015;SDS011;46902;52.920;6.536;2023-06-26T00:51:26;9.45;;;7.32;;
61015;SDS011;46902;52.920;6.536;2023-06-26T00:53:53;8.52;;;7.65;;
61015;SDS011;46902;52.920;6.536;2023-06-26T00:56:19;8.50;;;7.70;;
61015;SDS011;46902;52.920;6.536;2023-06-26T00:58:45;9.07;;;7.93;;
61015;SDS011;46902;52.920;6.536;2023-06-26T01:01:11;8.88;;;7.75;;
61015;SDS011;46902;52.920;6.536;2023-06-26T01:03:41;9.35;;;7.85;;
61015;SDS011;46902;52.920;6.536;2023-06-26T01:06:11;8.63;;;7.78;;
61015;SDS011;46902;52.920;6.536;2023-06-26T01:08:40;8.38;;;7.32;;
61015;SDS011;46902;52.920;6.536;2023-06-26T01:11:06;8.60;;;7.70;;
61015;SDS011;46902;52.920;6.536;2023-06-26T01:13:32;10.45;;;8.18;;
61015;SDS011;46902;52.920;6.536;2023-06-26T01:15:59;10.15;;;7.65;;
61015;SDS011;46902;52.920;6.536;2023-06-26T01:18:26;8.60;;;7.70;;
61015;SDS011;46902;52.920;6.536;2023-06-26T01:20:52;8.68;;;7.78;;
61015;SDS011;46902;52.920;6.536;2023-06-26T01:28:37;9.05;;;8.15;;
61015;SDS011;46902;52.920;6.536;2023-06-26T01:31:06;11.52;;;7.72;;
61015;SDS011;46902;52.920;6.536;2023-06-26T01:33:33;8.52;;;7.68;;
61015;SDS011;46902;52.920;6.536;2023-06-26T01:36:00;9.07;;;8.27;;
61015;SDS011;46902;52.920;6.536;2023-06-26T01:38:26;11.00;;;7.85;;
61015;SDS011;46902;52.920;6.536;2023-06-26T01:40:52;9.75;;;7.95;;
61015;SDS011;46902;52.920;6.536;2023-06-26T01:46:16;10.18;;;8.65;;
61015;SDS011;46902;52.920;6.536;2023-06-26T01:48:49;9.10;;;8.20;;
61015;SDS011;46902;52.920;6.536;2023-06-26T01:51:38;9.00;;;8.00;;
61015;SDS011;46902;52.920;6.536;2023-06-26T01:54:10;9.48;;;8.05;;
61015;SDS011;46902;52.920;6.536;2023-06-26T01:56:39;11.20;;;8.63;;
61015;SDS011;46902;52.920;6.536;2023-06-26T01:59:05;9.43;;;8.45;;
61015;SDS011;46902;52.920;6.536;2023-06-26T02:01:32;9.18;;;8.13;;
61015;SDS011;46902;52.920;6.536;2023-06-26T02:03:59;9.40;;;8.50;;
61015;SDS011;46902;52.920;6.536;2023-06-26T02:06:24;9.15;;;8.25;;
61015;SDS011;46902;52.920;6.536;2023-06-26T02:08:50;9.20;;;8.23;;
61015;SDS011;46902;52.920;6.536;2023-06-26T02:11:16;9.73;;;8.73;;
61015;SDS011;46902;52.920;6.536;2023-06-26T02:13:41;11.32;;;8.65;;
61015;SDS011;46902;52.920;6.536;2023-06-26T02:16:07;11.88;;;8.73;;
61015;SDS011;46902;52.920;6.536;2023-06-26T02:18:33;10.40;;;9.38;;
61015;SDS011;46902;52.920;6.536;2023-06-26T02:20:58;10.60;;;9.57;;
61015;SDS011;46902;52.920;6.536;2023-06-26T02:23:24;11.10;;;9.90;;
61015;SDS011;46902;52.920;6.536;2023-06-26T02:25:49;11.02;;;9.82;;
61015;SDS011;46902;52.920;6.536;2023-06-26T02:28:15;11.48;;;10.27;;
61015;SDS011;46902;52.920;6.536;2023-06-26T02:30:41;13.90;;;9.65;;
61015;SDS011;46902;52.920;6.536;2023-06-26T02:33:06;10.60;;;9.60;;
61015;SDS011;46902;52.920;6.536;2023-06-26T02:35:32;10.65;;;9.45;;
61015;SDS011;46902;52.920;6.536;2023-06-26T02:37:58;10.43;;;9.27;;
61015;SDS011;46902;52.920;6.536;2023-06-26T02:40:23;12.13;;;9.23;;
61015;SDS011;46902;52.920;6.536;2023-06-26T02:42:49;11.30;;;10.18;;
61015;SDS011;46902;52.920;6.536;2023-06-26T02:45:14;11.00;;;9.90;;
61015;SDS011;46902;52.920;6.536;2023-06-26T02:47:40;11.75;;;10.63;;
61015;SDS011;46902;52.920;6.536;2023-06-26T02:50:06;11.50;;;10.40;;
61015;SDS011;46902;52.920;6.536;2023-06-26T02:52:32;11.98;;;10.68;;
61015;SDS011;46902;52.920;6.536;2023-06-26T02:54:58;11.05;;;9.93;;
61015;SDS011;46902;52.920;6.536;2023-06-26T02:57:23;11.52;;;10.10;;
61015;SDS011;46902;52.920;6.536;2023-06-26T02:59:49;12.27;;;10.82;;
61015;SDS011;46902;52.920;6.536;2023-06-26T03:02:14;11.80;;;9.77;;
61015;SDS011;46902;52.920;6.536;2023-06-26T03:04:40;11.70;;;9.98;;
61015;SDS011;46902;52.920;6.536;2023-06-26T03:07:08;14.10;;;10.80;;
61015;SDS011;46902;52.920;6.536;2023-06-26T03:09:33;11.90;;;10.70;;
61015;SDS011;46902;52.920;6.536;2023-06-26T03:11:59;12.90;;;11.50;;
61015;SDS011;46902;52.920;6.536;2023-06-26T03:14:25;14.05;;;11.70;;
61015;SDS011;46902;52.920;6.536;2023-06-26T03:16:51;13.05;;;11.75;;
61015;SDS011;46902;52.920;6.536;2023-06-26T03:19:18;11.70;;;10.55;;
61015;SDS011;46902;52.920;6.536;2023-06-26T03:21:43;13.77;;;11.27;;
61015;SDS011;46902;52.920;6.536;2023-06-26T03:24:09;12.60;;;10.80;;
61015;SDS011;46902;52.920;6.536;2023-06-26T03:26:35;13.50;;;11.13;;
61015;SDS011;46902;52.920;6.536;2023-06-26T03:29:00;11.80;;;10.52;;
61015;SDS011;46902;52.920;6.536;2023-06-26T03:31:26;12.60;;;10.52;;
61015;SDS011;46902;52.920;6.536;2023-06-26T03:33:51;13.05;;;10.07;;
61015;SDS011;46902;52.920;6.536;2023-06-26T03:36:17;12.10;;;10.10;;
61015;SDS011;46902;52.920;6.536;2023-06-26T03:38:42;11.05;;;9.73;;
61015;SDS011;46902;52.920;6.536;2023-06-26T03:41:08;10.60;;;9.43;;
61015;SDS011;46902;52.920;6.536;2023-06-26T03:43:34;12.25;;;9.68;;
61015;SDS011;46902;52.920;6.536;2023-06-26T03:45:59;11.57;;;8.98;;
61015;SDS011;46902;52.920;6.536;2023-06-26T03:48:25;12.32;;;8.45;;
61015;SDS011;46902;52.920;6.536;2023-06-26T03:50:50;9.65;;;8.02;;
61015;SDS011;46902;52.920;6.536;2023-06-26T03:53:16;9.38;;;8.35;;
61015;SDS011;46902;52.920;6.536;2023-06-26T03:55:42;11.25;;;7.68;;
61015;SDS011;46902;52.920;6.536;2023-06-26T03:58:07;8.25;;;7.38;;
61015;SDS011;46902;52.920;6.536;2023-06-26T04:00:33;10.40;;;8.02;;
61015;SDS011;46902;52.920;6.536;2023-06-26T04:02:58;11.18;;;7.97;;
61015;SDS011;46902;52.920;6.536;2023-06-26T04:05:24;10.88;;;8.35;;
61015;SDS011;46902;52.920;6.536;2023-06-26T04:07:50;11.95;;;7.57;;
61015;SDS011;46902;52.920;6.536;2023-06-26T04:10:16;9.13;;;7.43;;
61015;SDS011;46902;52.920;6.536;2023-06-26T04:12:42;10.38;;;7.50;;
61015;SDS011;46902;52.920;6.536;2023-06-26T04:15:08;13.48;;;7.43;;
61015;SDS011;46902;52.920;6.536;2023-06-26T04:17:34;10.80;;;7.40;;
61015;SDS011;46902;52.920;6.536;2023-06-26T04:19:59;10.60;;;7.43;;
61015;SDS011;46902;52.920;6.536;2023-06-26T04:22:25;9.63;;;7.32;;
61015;SDS011;46902;52.920;6.536;2023-06-26T04:24:51;9.75;;;7.22;;
61015;SDS011;46902;52.920;6.536;2023-06-26T04:27:17;10.50;;;7.97;;
61015;SDS011;46902;52.920;6.536;2023-06-26T04:29:43;10.13;;;7.68;;
61015;SDS011;46902;52.920;6.536;2023-06-26T04:32:08;9.02;;;8.00;;
61015;SDS011;46902;52.920;6.536;2023-06-26T04:34:34;12.40;;;8.55;;
61015;SDS011;46902;52.920;6.536;2023-06-26T04:37:01;12.10;;;7.95;;
61015;SDS011;46902;52.920;6.536;2023-06-26T04:39:29;10.50;;;8.38;;
61015;SDS011;46902;52.920;6.536;2023-06-26T04:41:55;10.30;;;7.93;;
61015;SDS011;46902;52.920;6.536;2023-06-26T04:44:21;10.73;;;7.80;;
61015;SDS011;46902;52.920;6.536;2023-06-26T04:46:46;13.07;;;8.00;;
61015;SDS011;46902;52.920;6.536;2023-06-26T04:49:12;12.80;;;7.60;;
61015;SDS011;46902;52.920;6.536;2023-06-26T04:51:38;16.38;;;7.75;;
61015;SDS011;46902;52.920;6.536;2023-06-26T04:54:09;12.30;;;7.40;;
61015;SDS011;46902;52.920;6.536;2023-06-26T04:56:35;13.45;;;7.25;;
61015;SDS011;46902;52.920;6.536;2023-06-26T04:59:01;13.00;;;7.20;;
61015;SDS011;46902;52.920;6.536;2023-06-26T05:01:28;16.27;;;6.55;;
61015;SDS011;46902;52.920;6.536;2023-06-26T05:03:58;13.32;;;6.80;;
61015;SDS011;46902;52.920;6.536;2023-06-26T05:06:24;11.00;;;6.80;;
61015;SDS011;46902;52.920;6.536;2023-06-26T05:08:49;11.23;;;6.68;;
61015;SDS011;46902;52.920;6.536;2023-06-26T05:11:15;12.57;;;6.97;;
61015;SDS011;46902;52.920;6.536;2023-06-26T05:13:41;17.90;;;7.10;;
61015;SDS011;46902;52.920;6.536;2023-06-26T05:16:07;14.00;;;7.03;;
61015;SDS011;46902;52.920;6.536;2023-06-26T05:18:34;15.18;;;7.03;;
61015;SDS011;46902;52.920;6.536;2023-06-26T05:21:00;15.63;;;6.95;;
61015;SDS011;46902;52.920;6.536;2023-06-26T05:23:26;13.98;;;7.32;;
61015;SDS011;46902;52.920;6.536;2023-06-26T05:25:53;15.60;;;7.18;;
61015;SDS011;46902;52.920;6.536;2023-06-26T05:28:19;15.45;;;7.45;;
61015;SDS011;46902;52.920;6.536;2023-06-26T05:30:45;13.45;;;7.45;;
61015;SDS011;46902;52.920;6.536;2023-06-26T05:33:13;17.17;;;8.13;;
61015;SDS011;46902;52.920;6.536;2023-06-26T05:35:42;15.13;;;7.70;;
61015;SDS011;46902;52.920;6.536;2023-06-26T05:38:10;13.27;;;6.97;;
61015;SDS011;46902;52.920;6.536;2023-06-26T05:40:36;14.85;;;7.57;;
61015;SDS011;46902;52.920;6.536;2023-06-26T05:43:02;18.38;;;7.80;;
61015;SDS011;46902;52.920;6.536;2023-06-26T05:45:28;12.73;;;6.90;;
61015;SDS011;46902;52.920;6.536;2023-06-26T05:47:53;13.18;;;6.53;;
61015;SDS011;46902;52.920;6.536;2023-06-26T05:50:19;12.50;;;6.38;;
61015;SDS011;46902;52.920;6.536;2023-06-26T05:52:45;12.40;;;6.00;;
61015;SDS011;46902;52.920;6.536;2023-06-26T05:55:11;13.13;;;6.15;;
61015;SDS011;46902;52.920;6.536;2023-06-26T05:57:38;13.30;;;5.70;;
61015;SDS011;46902;52.920;6.536;2023-06-26T06:00:05;12.93;;;5.80;;
61015;SDS011;46902;52.920;6.536;2023-06-26T06:02:35;10.85;;;5.20;;
61015;SDS011;46902;52.920;6.536;2023-06-26T06:05:01;14.68;;;4.80;;
61015;SDS011;46902;52.920;6.536;2023-06-26T06:07:27;10.68;;;4.40;;
61015;SDS011;46902;52.920;6.536;2023-06-26T06:09:53;12.32;;;4.15;;
61015;SDS011;46902;52.920;6.536;2023-06-26T06:12:18;15.38;;;4.20;;
61015;SDS011;46902;52.920;6.536;2023-06-26T06:14:44;12.85;;;3.25;;
61015;SDS011;46902;52.920;6.536;2023-06-26T06:17:10;10.77;;;3.40;;
61015;SDS011;46902;52.920;6.536;2023-06-26T06:19:35;9.07;;;3.10;;
61015;SDS011;46902;52.920;6.536;2023-06-26T06:22:01;7.32;;;2.78;;
61015;SDS011;46902;52.920;6.536;2023-06-26T06:24:29;6.70;;;2.60;;
61015;SDS011;46902;52.920;6.536;2023-06-26T06:26:54;12.00;;;3.25;;
61015;SDS011;46902;52.920;6.536;2023-06-26T06:29:20;7.60;;;2.80;;
61015;SDS011;46902;52.920;6.536;2023-06-26T06:31:45;7.53;;;2.90;;
61015;SDS011;46902;52.920;6.536;2023-06-26T06:34:11;9.70;;;3.20;;
61015;SDS011;46902;52.920;6.536;2023-06-26T06:36:37;8.43;;;2.90;;
61015;SDS011;46902;52.920;6.536;2023-06-26T06:39:03;8.80;;;2.67;;
61015;SDS011;46902;52.920;6.536;2023-06-26T06:41:29;10.52;;;2.40;;
61015;SDS011;46902;52.920;6.536;2023-06-26T06:43:54;5.53;;;2.20;;
61015;SDS011;46902;52.920;6.536;2023-06-26T06:46:20;7.63;;;2.53;;
61015;SDS011;46902;52.920;6.536;2023-06-26T06:48:46;7.75;;;2.55;;
61015;SDS011;46902;52.920;6.536;2023-06-26T06:51:14;6.68;;;2.03;;
61015;SDS011;46902;52.920;6.536;2023-06-26T06:53:39;7.10;;;2.10;;
61015;SDS011;46902;52.920;6.536;2023-06-26T06:56:05;7.10;;;2.10;;
61015;SDS011;46902;52.920;6.536;2023-06-26T06:58:30;6.47;;;2.22;;
61015;SDS011;46902;52.920;6.536;2023-06-26T07:00:59;7.63;;;2.67;;
61015;SDS011;46902;52.920;6.536;2023-06-26T07:03:24;8.90;;;2.33;;
61015;SDS011;46902;52.920;6.536;2023-06-26T07:05:50;8.73;;;1.80;;
61015;SDS011;46902;52.920;6.536;2023-06-26T07:08:16;7.70;;;2.05;;
61015;SDS011;46902;52.920;6.536;2023-06-26T07:10:41;5.68;;;1.55;;
61015;SDS011;46902;52.920;6.536;2023-06-26T07:13:07;5.50;;;2.10;;
61015;SDS011;46902;52.920;6.536;2023-06-26T07:15:33;9.70;;;2.03;;
61015;SDS011;46902;52.920;6.536;2023-06-26T07:17:58;5.85;;;2.25;;
61015;SDS011;46902;52.920;6.536;2023-06-26T07:20:24;6.47;;;2.25;;
61015;SDS011;46902;52.920;6.536;2023-06-26T07:22:49;9.25;;;1.95;;
61015;SDS011;46902;52.920;6.536;2023-06-26T07:25:15;8.52;;;2.25;;
61015;SDS011;46902;52.920;6.536;2023-06-26T07:27:41;7.28;;;2.33;;
61015;SDS011;46902;52.920;6.536;2023-06-26T07:30:07;8.23;;;2.00;;
61015;SDS011;46902;52.920;6.536;2023-06-26T07:32:34;7.35;;;2.50;;
61015;SDS011;46902;52.920;6.536;2023-06-26T07:35:00;9.00;;;1.90;;
61015;SDS011;46902;52.920;6.536;2023-06-26T07:37:26;7.32;;;2.00;;
61015;SDS011;46902;52.920;6.536;2023-06-26T07:39:51;6.40;;;1.73;;
61015;SDS011;46902;52.920;6.536;2023-06-26T07:42:17;7.90;;;2.05;;
61015;SDS011;46902;52.920;6.536;2023-06-26T07:44:43;7.07;;;1.92;;
61015;SDS011;46902;52.920;6.536;2023-06-26T07:47:09;5.40;;;1.80;;
61015;SDS011;46902;52.920;6.536;2023-06-26T07:49:34;6.40;;;1.88;;
61015;SDS011;46902;52.920;6.536;2023-06-26T07:52:00;5.45;;;2.00;;
61015;SDS011;46902;52.920;6.536;2023-06-26T07:54:26;4.00;;;1.58;;
61015;SDS011;46902;52.920;6.536;2023-06-26T07:56:56;6.68;;;1.65;;
61015;SDS011;46902;52.920;6.536;2023-06-26T07:59:23;6.65;;;1.95;;
61015;SDS011;46902;52.920;6.536;2023-06-26T08:01:50;6.50;;;1.77;;
61015;SDS011;46902;52.920;6.536;2023-06-26T08:04:20;10.05;;;1.60;;
61015;SDS011;46902;52.920;6.536;2023-06-26T08:06:48;6.82;;;1.70;;
61015;SDS011;46902;52.920;6.536;2023-06-26T08:09:15;8.15;;;2.42;;
61015;SDS011;46902;52.920;6.536;2023-06-26T08:11:41;5.43;;;1.50;;
61015;SDS011;46902;52.920;6.536;2023-06-26T08:14:06;6.68;;;1.80;;
61015;SDS011;46902;52.920;6.536;2023-06-26T08:16:32;6.10;;;1.85;;
61015;SDS011;46902;52.920;6.536;2023-06-26T08:18:58;4.43;;;1.42;;
61015;SDS011;46902;52.920;6.536;2023-06-26T08:21:23;4.82;;;1.30;;
61015;SDS011;46902;52.920;6.536;2023-06-26T08:23:49;4.50;;;1.40;;
61015;SDS011;46902;52.920;6.536;2023-06-26T08:26:14;4.63;;;1.52;;
61015;SDS011;46902;52.920;6.536;2023-06-26T08:28:40;5.20;;;1.85;;
61015;SDS011;46902;52.920;6.536;2023-06-26T08:31:06;3.65;;;1.75;;
61015;SDS011;46902;52.920;6.536;2023-06-26T08:33:31;3.75;;;1.33;;
61015;SDS011;46902;52.920;6.536;2023-06-26T08:35:57;7.35;;;1.63;;
61015;SDS011;46902;52.920;6.536;2023-06-26T08:38:23;6.35;;;1.52;;
61015;SDS011;46902;52.920;6.536;2023-06-26T08:40:48;4.43;;;1.45;;
61015;SDS011;46902;52.920;6.536;2023-06-26T08:43:14;3.15;;;1.42;;
61015;SDS011;46902;52.920;6.536;2023-06-26T08:45:39;5.38;;;1.70;;
61015;SDS011;46902;52.920;6.536;2023-06-26T08:48:07;6.40;;;2.13;;
61015;SDS011;46902;52.920;6.536;2023-06-26T08:50:34;3.97;;;1.60;;
61015;SDS011;46902;52.920;6.536;2023-06-26T08:53:07;5.30;;;1.70;;
61015;SDS011;46902;52.920;6.536;2023-06-26T08:55:52;5.68;;;1.83;;
61015;SDS011;46902;52.920;6.536;2023-06-26T08:58:19;6.10;;;1.73;;
61015;SDS011;46902;52.920;6.536;2023-06-26T09:00:45;3.75;;;1.77;;
61015;SDS011;46902;52.920;6.536;2023-06-26T09:03:11;5.65;;;1.90;;
61015;SDS011;46902;52.920;6.536;2023-06-26T09:05:38;6.28;;;1.73;;
61015;SDS011;46902;52.920;6.536;2023-06-26T09:08:04;7.88;;;2.00;;
61015;SDS011;46902;52.920;6.536;2023-06-26T09:10:31;8.02;;;1.70;;
61015;SDS011;46902;52.920;6.536;2023-06-26T09:12:56;6.63;;;1.65;;
61015;SDS011;46902;52.920;6.536;2023-06-26T09:15:23;4.90;;;1.80;;
61015;SDS011;46902;52.920;6.536;2023-06-26T09:17:49;4.80;;;1.50;;
61015;SDS011;46902;52.920;6.536;2023-06-26T09:20:15;5.30;;;2.03;;
61015;SDS011;46902;52.920;6.536;2023-06-26T09:22:43;3.95;;;1.90;;
61015;SDS011;46902;52.920;6.536;2023-06-26T09:27:38;8.32;;;1.95;;
61015;SDS011;46902;52.920;6.536;2023-06-26T09:30:05;7.97;;;2.20;;
61015;SDS011;46902;52.920;6.536;2023-06-26T09:32:35;8.25;;;2.03;;
61015;SDS011;46902;52.920;6.536;2023-06-26T09:35:04;4.13;;;1.73;;
61015;SDS011;46902;52.920;6.536;2023-06-26T09:37:29;8.38;;;1.70;;
61015;SDS011;46902;52.920;6.536;2023-06-26T09:39:55;5.85;;;1.90;;
61015;SDS011;46902;52.920;6.536;2023-06-26T09:42:21;4.80;;;1.40;;
61015;SDS011;46902;52.920;6.536;2023-06-26T09:44:48;4.75;;;1.40;;
61015;SDS011;46902;52.920;6.536;2023-06-26T09:47:18;10.65;;;1.77;;
61015;SDS011;46902;52.920;6.536;2023-06-26T09:49:44;6.38;;;1.83;;
61015;SDS011;46902;52.920;6.536;2023-06-26T09:52:13;7.10;;;1.92;;
61015;SDS011;46902;52.920;6.536;2023-06-26T09:54:40;8.50;;;2.53;;
61015;SDS011;46902;52.920;6.536;2023-06-26T09:57:10;6.65;;;1.83;;
61015;SDS011;46902;52.920;6.536;2023-06-26T09:59:41;5.82;;;1.88;;
61015;SDS011;46902;52.920;6.536;2023-06-26T10:02:09;7.88;;;1.95;;
61015;SDS011;46902;52.920;6.536;2023-06-26T10:04:36;8.68;;;1.83;;
61015;SDS011;46902;52.920;6.536;2023-06-26T10:07:04;3.55;;;1.60;;
61015;SDS011;46902;52.920;6.536;2023-06-26T10:09:32;5.80;;;1.90;;
61015;SDS011;46902;52.920;6.536;2023-06-26T10:12:13;7.32;;;1.90;;
61015;SDS011;46902;52.920;6.536;2023-06-26T10:14:44;4.65;;;1.60;;
61015;SDS011;46902;52.920;6.536;2023-06-26T10:17:11;7.05;;;2.13;;
61015;SDS011;46902;52.920;6.536;2023-06-26T10:19:41;3.80;;;1.52;;
61015;SDS011;46902;52.920;6.536;2023-06-26T10:22:10;5.97;;;1.75;;
61015;SDS011;46902;52.920;6.536;2023-06-26T10:24:39;4.20;;;1.83;;
61015;SDS011;46902;52.920;6.536;2023-06-26T10:27:19;4.18;;;1.83;;
61015;SDS011;46902;52.920;6.536;2023-06-26T10:29:46;5.40;;;2.00;;
61015;SDS011;46902;52.920;6.536;2023-06-26T10:32:19;6.75;;;1.95;;
61015;SDS011;46902;52.920;6.536;2023-06-26T10:34:48;3.95;;;1.90;;
61015;SDS011;46902;52.920;6.536;2023-06-26T10:37:14;5.65;;;1.83;;
61015;SDS011;46902;52.920;6.536;2023-06-26T10:39:50;4.70;;;1.80;;
61015;SDS011;46902;52.920;6.536;2023-06-26T10:42:35;4.10;;;1.67;;
61015;SDS011;46902;52.920;6.536;2023-06-26T10:47:48;6.50;;;1.60;;
61015;SDS011;46902;52.920;6.536;2023-06-26T10:50:18;7.55;;;1.40;;
61015;SDS011;46902;52.920;6.536;2023-06-26T10:53:09;4.80;;;1.80;;
61015;SDS011;46902;52.920;6.536;2023-06-26T10:55:47;7.28;;;1.42;;
61015;SDS011;46902;52.920;6.536;2023-06-26T11:03:49;7.13;;;1.65;;
61015;SDS011;46902;52.920;6.536;2023-06-26T11:06:29;6.68;;;1.25;;
61015;SDS011;46902;52.920;6.536;2023-06-26T11:09:00;9.40;;;1.70;;
61015;SDS011;46902;52.920;6.536;2023-06-26T11:14:18;7.63;;;1.40;;
61015;SDS011;46902;52.920;6.536;2023-06-26T11:16:45;5.00;;;1.38;;
61015;SDS011;46902;52.920;6.536;2023-06-26T11:19:11;3.65;;;1.17;;
61015;SDS011;46902;52.920;6.536;2023-06-26T11:21:38;4.90;;;1.40;;
61015;SDS011;46902;52.920;6.536;2023-06-26T11:24:04;5.22;;;1.20;;
61015;SDS011;46902;52.920;6.536;2023-06-26T11:26:37;5.75;;;1.67;;
61015;SDS011;46902;52.920;6.536;2023-06-26T11:29:04;8.00;;;1.40;;
61015;SDS011;46902;52.920;6.536;2023-06-26T11:31:36;5.80;;;1.50;;
61015;SDS011;46902;52.920;6.536;2023-06-26T11:34:04;7.93;;;2.28;;
61015;SDS011;46902;52.920;6.536;2023-06-26T11:36:35;4.95;;;1.40;;
61015;SDS011;46902;52.920;6.536;2023-06-26T11:39:03;5.38;;;1.30;;
61015;SDS011;46902;52.920;6.536;2023-06-26T11:41:31;7.68;;;1.65;;
61015;SDS011;46902;52.920;6.536;2023-06-26T11:44:01;6.28;;;1.30;;
61015;SDS011;46902;52.920;6.536;2023-06-26T11:46:28;6.03;;;1.10;;
61015;SDS011;46902;52.920;6.536;2023-06-26T11:48:55;4.78;;;0.93;;
61015;SDS011;46902;52.920;6.536;2023-06-26T11:51:20;5.65;;;0.80;;
61015;SDS011;46902;52.920;6.536;2023-06-26T11:53:46;4.53;;;1.00;;
61015;SDS011;46902;52.920;6.536;2023-06-26T11:56:16;8.77;;;1.00;;
61015;SDS011;46902;52.920;6.536;2023-06-26T12:01:43;8.98;;;1.48;;
61015;SDS011;46902;52.920;6.536;2023-06-26T12:04:10;4.37;;;1.20;;
61015;SDS011;46902;52.920;6.536;2023-06-26T12:06:41;8.45;;;1.40;;
61015;SDS011;46902;52.920;6.536;2023-06-26T12:09:11;6.07;;;1.48;;
61015;SDS011;46902;52.920;6.536;2023-06-26T12:11:38;6.90;;;1.20;;
61015;SDS011;46902;52.920;6.536;2023-06-26T12:14:07;8.13;;;1.20;;
61015;SDS011;46902;52.920;6.536;2023-06-26T12:16:34;4.85;;;1.40;;
61015;SDS011;46902;52.920;6.536;2023-06-26T12:19:00;5.85;;;1.33;;
61015;SDS011;46902;52.920;6.536;2023-06-26T12:21:43;6.05;;;1.40;;
61015;SDS011;46902;52.920;6.536;2023-06-26T12:24:17;8.05;;;1.38;;
61015;SDS011;46902;52.920;6.536;2023-06-26T12:26:50;9.18;;;1.30;;
61015;SDS011;46902;52.920;6.536;2023-06-26T12:29:19;4.90;;;0.95;;
61015;SDS011;46902;52.920;6.536;2023-06-26T12:31:49;6.82;;;1.58;;
61015;SDS011;46902;52.920;6.536;2023-06-26T12:34:17;10.77;;;1.30;;
61015;SDS011;46902;52.920;6.536;2023-06-26T12:36:52;14.02;;;1.40;;
61015;SDS011;46902;52.920;6.536;2023-06-26T12:39:18;6.03;;;1.08;;
61015;SDS011;46902;52.920;6.536;2023-06-26T12:41:46;7.70;;;1.30;;
61015;SDS011;46902;52.920;6.536;2023-06-26T12:44:32;10.30;;;1.20;;
61015;SDS011;46902;52.920;6.536;2023-06-26T12:46:59;5.07;;;0.80;;
61015;SDS011;46902;52.920;6.536;2023-06-26T12:49:34;2.90;;;1.00;;
61015;SDS011;46902;52.920;6.536;2023-06-26T12:52:07;6.25;;;1.48;;
61015;SDS011;46902;52.920;6.536;2023-06-26T12:54:35;7.38;;;1.20;;
61015;SDS011;46902;52.920;6.536;2023-06-26T12:57:01;5.78;;;1.10;;
61015;SDS011;46902;52.920;6.536;2023-06-26T12:59:29;5.05;;;1.00;;
61015;SDS011;46902;52.920;6.536;2023-06-26T13:01:55;4.78;;;1.45;;
61015;SDS011;46902;52.920;6.536;2023-06-26T13:04:21;5.97;;;1.23;;
61015;SDS011;46902;52.920;6.536;2023-06-26T13:06:46;2.03;;;0.88;;
61015;SDS011;46902;52.920;6.536;2023-06-26T13:09:12;5.85;;;1.30;;
61015;SDS011;46902;52.920;6.536;2023-06-26T13:11:38;5.00;;;1.60;;
61015;SDS011;46902;52.920;6.536;2023-06-26T13:14:03;5.22;;;1.58;;
61015;SDS011;46902;52.920;6.536;2023-06-26T13:16:29;5.93;;;1.30;;
61015;SDS011;46902;52.920;6.536;2023-06-26T13:18:55;10.13;;;1.67;;
61015;SDS011;46902;52.920;6.536;2023-06-26T13:21:22;11.40;;;1.38;;
61015;SDS011;46902;52.920;6.536;2023-06-26T13:23:48;9.43;;;1.95;;
61015;SDS011;46902;52.920;6.536;2023-06-26T13:26:14;10.25;;;1.75;;
61015;SDS011;46902;52.920;6.536;2023-06-26T13:28:39;7.15;;;1.73;;
61015;SDS011;46902;52.920;6.536;2023-06-26T13:31:05;9.30;;;1.40;;
61015;SDS011;46902;52.920;6.536;2023-06-26T13:33:31;7.50;;;1.75;;
61015;SDS011;46902;52.920;6.536;2023-06-26T13:35:57;7.95;;;1.10;;
61015;SDS011;46902;52.920;6.536;2023-06-26T13:38:23;6.97;;;1.50;;
61015;SDS011;46902;52.920;6.536;2023-06-26T13:40:53;7.90;;;1.23;;
61015;SDS011;46902;52.920;6.536;2023-06-26T13:43:20;5.63;;;1.60;;
61015;SDS011;46902;52.920;6.536;2023-06-26T13:45:47;5.88;;;1.42;;
61015;SDS011;46902;52.920;6.536;2023-06-26T13:48:13;9.05;;;1.33;;
61015;SDS011;46902;52.920;6.536;2023-06-26T13:50:38;6.07;;;1.25;;
61015;SDS011;46902;52.920;6.536;2023-06-26T13:53:04;5.82;;;1.63;;
61015;SDS011;46902;52.920;6.536;2023-06-26T13:55:30;7.82;;;1.95;;
61015;SDS011;46902;52.920;6.536;2023-06-26T13:57:57;8.52;;;2.03;;
61015;SDS011;46902;52.920;6.536;2023-06-26T14:00:23;6.18;;;1.60;;
61015;SDS011;46902;52.920;6.536;2023-06-26T14:02:50;5.50;;;1.55;;
61015;SDS011;46902;52.920;6.536;2023-06-26T14:05:16;12.38;;;1.55;;
61015;SDS011;46902;52.920;6.536;2023-06-26T14:07:43;7.53;;;1.70;;
61015;SDS011;46902;52.920;6.536;2023-06-26T14:10:09;6.40;;;1.45;;
61015;SDS011;46902;52.920;6.536;2023-06-26T14:12:35;5.28;;;1.33;;
61015;SDS011;46902;52.920;6.536;2023-06-26T14:15:01;4.43;;;1.20;;
61015;SDS011;46902;52.920;6.536;2023-06-26T14:17:26;6.68;;;1.45;;
61015;SDS011;46902;52.920;6.536;2023-06-26T14:19:52;6.25;;;1.40;;
61015;SDS011;46902;52.920;6.536;2023-06-26T14:22:18;5.85;;;1.50;;
61015;SDS011;46902;52.920;6.536;2023-06-26T14:24:44;5.38;;;1.35;;
61015;SDS011;46902;52.920;6.536;2023-06-26T14:27:09;6.63;;;1.00;;
61015;SDS011;46902;52.920;6.536;2023-06-26T14:29:35;6.43;;;1.77;;
61015;SDS011;46902;52.920;6.536;2023-06-26T14:32:02;4.57;;;1.05;;
61015;SDS011;46902;52.920;6.536;2023-06-26T14:34:28;7.68;;;1.63;;
61015;SDS011;46902;52.920;6.536;2023-06-26T14:36:54;5.43;;;1.60;;
61015;SDS011;46902;52.920;6.536;2023-06-26T14:39:20;7.15;;;1.42;;
61015;SDS011;46902;52.920;6.536;2023-06-26T14:41:46;6.10;;;1.40;;
61015;SDS011;46902;52.920;6.536;2023-06-26T14:44:13;6.32;;;1.33;;
61015;SDS011;46902;52.920;6.536;2023-06-26T14:46:39;6.65;;;1.05;;
61015;SDS011;46902;52.920;6.536;2023-06-26T14:49:05;7.65;;;1.40;;
61015;SDS011;46902;52.920;6.536;2023-06-26T14:51:30;6.30;;;1.33;;
61015;SDS011;46902;52.920;6.536;2023-06-26T14:53:56;11.13;;;1.58;;
61015;SDS011;46902;52.920;6.536;2023-06-26T14:56:22;5.55;;;1.48;;
61015;SDS011;46902;52.920;6.536;2023-06-26T14:58:49;4.93;;;1.20;;
61015;SDS011;46902;52.920;6.536;2023-06-26T15:01:17;7.13;;;1.45;;
61015;SDS011;46902;52.920;6.536;2023-06-26T15:03:48;6.07;;;1.35;;
61015;SDS011;46902;52.920;6.536;2023-06-26T15:06:14;8.57;;;1.80;;